createdAt,value
2022-10-25T00:00:48.012Z,78.78
2022-10-25T00:03:15.011Z,78.76
2022-10-25T00:05:42.369Z,78.62
2022-10-25T00:08:09.329Z,78.79
2022-10-25T00:10:36.621Z,79.12
2022-10-25T00:13:03.513Z,79.02
2022-10-25T00:15:30.287Z,78.68
2022-10-25T00:17:57.243Z,79.01
2022-10-25T00:20:23.911Z,79.10
2022-10-25T00:22:51.065Z,79.04
2022-10-25T00:25:17.761Z,79.20
2022-10-25T00:27:44.566Z,79.01
2022-10-25T00:30:11.713Z,79.02
2022-10-25T00:32:38.469Z,79.50
2022-10-25T00:35:05.424Z,79.70
2022-10-25T00:37:32.132Z,79.56
2022-10-25T00:39:58.930Z,79.69
2022-10-25T00:42:26.941Z,79.75
2022-10-25T00:44:57.820Z,79.82
2022-10-25T00:47:31.073Z,79.70
2022-10-25T00:50:03.181Z,79.95
2022-10-25T00:52:32.396Z,79.97
2022-10-25T00:55:00.108Z,80.30
2022-10-25T00:57:47.710Z,80.28
2022-10-25T01:00:15.293Z,80.45
2022-10-25T01:02:42.550Z,80.63
2022-10-25T01:05:10.234Z,80.68
2022-10-25T01:07:37.033Z,79.98
2022-10-25T01:10:04.007Z,80.23
2022-10-25T01:12:30.739Z,80.33
2022-10-25T01:14:58.370Z,80.83
2022-10-25T01:17:25.049Z,81.16
2022-10-25T01:20:10.365Z,81.29
2022-10-25T01:22:37.208Z,81.06
2022-10-25T01:25:09.737Z,81.35
2022-10-25T01:27:42.809Z,81.14
2022-10-25T01:30:09.669Z,81.43
2022-10-25T01:32:55.195Z,81.49
2022-10-25T01:35:21.990Z,81.52
2022-10-25T01:37:55.965Z,81.64
2022-10-25T01:40:29.101Z,81.11
2022-10-25T01:42:56.025Z,80.83
2022-10-25T01:45:27.207Z,81.65
2022-10-25T01:47:59.538Z,81.96
2022-10-25T01:50:28.601Z,81.91
2022-10-25T01:52:55.626Z,82.08
2022-10-25T01:55:25.676Z,82.17
2022-10-25T01:58:06.387Z,82.09
2022-10-25T02:00:38.360Z,81.77
2022-10-25T02:03:11.459Z,81.89
2022-10-25T02:05:38.323Z,82.04
2022-10-25T02:08:08.403Z,82.10
2022-10-25T02:10:40.899Z,81.84
2022-10-25T02:13:10.449Z,81.49
2022-10-25T02:15:39.928Z,81.56
2022-10-25T02:18:18.851Z,81.18
2022-10-25T02:20:46.926Z,81.58
2022-10-25T02:23:14.891Z,81.75
2022-10-25T02:25:42.483Z,81.54
2022-10-25T02:28:11.481Z,81.87
2022-10-25T02:30:40.248Z,82.39
2022-10-25T02:33:06.955Z,82.61
2022-10-25T02:35:33.680Z,82.96
2022-10-25T02:38:00.796Z,83.00
2022-10-25T02:40:27.841Z,83.03
2022-10-25T02:42:54.538Z,83.03
2022-10-25T02:45:21.396Z,82.96
2022-10-25T02:47:48.276Z,82.86
2022-10-25T02:50:15.479Z,82.79
2022-10-25T02:52:42.384Z,82.90
2022-10-25T02:55:09.358Z,82.98
2022-10-25T02:57:37.044Z,83.04
2022-10-25T03:00:04.837Z,82.91
2022-10-25T03:02:31.559Z,82.79
2022-10-25T03:04:58.283Z,82.97
2022-10-25T03:07:26.248Z,83.31
2022-10-25T03:09:52.949Z,83.39
2022-10-25T03:12:19.850Z,83.39
2022-10-25T03:14:46.533Z,83.40
2022-10-25T03:17:13.230Z,83.51
2022-10-25T03:19:40.188Z,83.52
2022-10-25T03:22:06.875Z,83.46
2022-10-25T03:24:33.723Z,83.32
2022-10-25T03:27:01.666Z,83.50
2022-10-25T03:29:28.443Z,83.63
2022-10-25T03:31:55.279Z,83.44
2022-10-25T03:34:22.028Z,83.15
2022-10-25T03:36:49.062Z,83.32
2022-10-25T03:39:15.750Z,83.27
2022-10-25T03:41:42.664Z,83.41
2022-10-25T03:44:09.345Z,83.14
2022-10-25T03:46:36.178Z,83.31
2022-10-25T03:49:03.247Z,83.56
2022-10-25T03:51:30.123Z,83.64
2022-10-25T03:53:57.021Z,84.23
2022-10-25T03:56:23.809Z,84.40
2022-10-25T03:58:53.369Z,84.44
2022-10-25T04:01:20.199Z,84.54
2022-10-25T04:03:47.487Z,84.76
2022-10-25T04:06:14.300Z,84.75
2022-10-25T04:08:41.027Z,84.81
2022-10-25T04:11:08.021Z,84.74
2022-10-25T04:13:34.848Z,84.66
2022-10-25T04:16:05.612Z,84.59
2022-10-25T04:18:32.311Z,84.13
2022-10-25T04:20:59.135Z,84.36
2022-10-25T04:23:25.847Z,84.48
2022-10-25T04:25:56.601Z,84.77
2022-10-25T04:28:23.886Z,85.05
2022-10-25T04:30:50.659Z,85.07
2022-10-25T04:33:17.541Z,85.12
2022-10-25T04:35:44.503Z,85.00
2022-10-25T04:38:11.451Z,85.17
2022-10-25T04:40:38.295Z,85.20
2022-10-25T04:43:04.995Z,84.96
2022-10-25T04:45:33.109Z,84.84
2022-10-25T04:47:59.939Z,84.96
2022-10-25T04:50:26.718Z,85.05
2022-10-25T04:52:53.527Z,85.00
2022-10-25T04:55:20.372Z,84.95
2022-10-25T04:57:47.205Z,84.95
2022-10-25T05:00:14.129Z,85.01
2022-10-25T05:02:41.130Z,85.23
2022-10-25T05:05:07.975Z,84.95
2022-10-25T05:07:34.998Z,84.73
2022-10-25T05:10:01.646Z,84.76
2022-10-25T05:12:29.180Z,85.08
2022-10-25T05:14:55.956Z,85.00
2022-10-25T05:17:23.073Z,84.99
2022-10-25T05:19:49.866Z,85.00
2022-10-25T05:22:16.697Z,85.14
2022-10-25T05:24:43.442Z,85.43
2022-10-25T05:27:10.299Z,85.38
2022-10-25T05:29:37.257Z,85.42
2022-10-25T05:32:04.139Z,85.63
2022-10-25T05:34:30.877Z,85.70
2022-10-25T05:36:58.097Z,85.80
2022-10-25T05:39:25.463Z,85.89
2022-10-25T05:41:52.675Z,85.92
2022-10-25T05:44:19.395Z,85.93
2022-10-25T05:46:46.298Z,85.83
2022-10-25T05:49:15.190Z,85.79
2022-10-25T05:51:41.839Z,85.67
2022-10-25T05:54:12.730Z,85.74
2022-10-25T05:56:40.408Z,85.49
2022-10-25T05:59:11.157Z,85.59
2022-10-25T06:01:39.124Z,85.48
2022-10-25T06:04:06.663Z,85.31
2022-10-25T06:06:33.345Z,85.15
2022-10-25T06:09:00.948Z,85.05
2022-10-25T06:11:28.295Z,85.12
2022-10-25T06:13:55.036Z,84.84
2022-10-25T06:16:22.168Z,84.71
2022-10-25T06:18:49.464Z,84.67
2022-10-25T06:21:18.228Z,84.63
2022-10-25T06:23:45.897Z,84.46
2022-10-25T06:26:23.562Z,84.36
2022-10-25T06:28:54.727Z,84.37
2022-10-25T06:31:21.963Z,84.21
2022-10-25T06:33:48.739Z,84.21
2022-10-25T06:36:17.084Z,84.14
2022-10-25T06:38:44.374Z,83.94
2022-10-25T06:41:18.860Z,83.97
2022-10-25T06:43:45.741Z,83.75
2022-10-25T06:46:21.792Z,83.66
2022-10-25T06:48:48.812Z,83.31
2022-10-25T06:51:15.795Z,83.17
2022-10-25T06:53:42.899Z,82.88
2022-10-25T06:56:14.416Z,82.90
2022-10-25T06:58:41.745Z,82.92
2022-10-25T07:01:13.288Z,82.37
2022-10-25T07:03:40.973Z,81.96
2022-10-25T07:06:09.558Z,81.80
2022-10-25T07:08:37.319Z,81.63
2022-10-25T07:11:04.548Z,81.17
2022-10-25T07:13:32.482Z,80.81
2022-10-25T07:16:03.496Z,80.20
2022-10-25T07:18:30.781Z,80.40
2022-10-25T07:21:17.312Z,80.07
2022-10-25T07:23:44.613Z,79.92
2022-10-25T07:26:11.328Z,79.64
2022-10-25T07:28:38.754Z,79.83
2022-10-25T07:31:06.084Z,79.96
2022-10-25T07:33:33.417Z,79.60
2022-10-25T07:36:09.708Z,79.92
2022-10-25T07:38:37.744Z,79.52
2022-10-25T07:41:04.691Z,79.73
2022-10-25T07:43:31.632Z,79.35
2022-10-25T07:45:58.557Z,78.97
2022-10-25T07:48:25.404Z,78.50
2022-10-25T07:50:52.074Z,78.27
2022-10-25T07:53:18.899Z,78.02
2022-10-25T07:55:52.548Z,77.53
2022-10-25T07:58:19.629Z,77.49
2022-10-25T08:00:46.716Z,77.45
2022-10-25T08:03:14.452Z,77.46
2022-10-25T08:05:42.995Z,77.64
2022-10-25T08:08:09.878Z,77.24
2022-10-25T08:10:36.747Z,77.19
2022-10-25T08:13:03.991Z,76.73
2022-10-25T08:15:30.744Z,76.17
2022-10-25T08:18:01.799Z,76.01
2022-10-25T08:20:56.380Z,75.31
2022-10-25T08:23:15.976Z,74.39
2022-10-25T08:25:42.796Z,74.42
2022-10-25T08:28:09.810Z,74.27
2022-10-25T08:30:36.762Z,73.54
2022-10-25T08:33:03.595Z,71.94
2022-10-25T08:35:30.542Z,71.58
2022-10-25T08:38:00.049Z,71.15
2022-10-25T08:40:34.426Z,70.71
2022-10-25T08:43:07.783Z,70.06
2022-10-25T08:45:49.252Z,70.15
2022-10-25T08:48:17.763Z,70.30
2022-10-25T08:50:46.789Z,69.69
2022-10-25T08:53:17.127Z,69.60
2022-10-25T08:55:58.875Z,69.07
2022-10-25T08:58:36.799Z,68.36
2022-10-25T09:01:12.969Z,67.74
2022-10-25T09:06:14.083Z,66.69
2022-10-25T09:08:54.384Z,66.54
2022-10-25T09:11:24.430Z,66.51
2022-10-25T09:14:00.401Z,66.52
2022-10-25T09:16:50.378Z,66.05
2022-10-25T09:19:28.662Z,65.56
2022-10-25T09:22:02.999Z,65.45
2022-10-25T09:24:34.181Z,65.15
2022-10-25T09:27:07.250Z,63.94
2022-10-25T09:29:37.199Z,63.46
2022-10-25T09:32:08.251Z,63.56
2022-10-25T09:34:35.302Z,62.14
2022-10-25T09:37:11.994Z,62.13
2022-10-25T09:39:44.804Z,62.29
2022-10-25T09:42:16.631Z,62.11
2022-10-25T09:44:46.951Z,62.12
2022-10-25T09:47:32.430Z,61.59
2022-10-25T09:50:02.195Z,61.44
2022-10-25T09:52:40.574Z,61.50
2022-10-25T09:55:07.363Z,61.09
2022-10-25T09:57:34.158Z,61.31
2022-10-25T10:00:00.842Z,61.15
2022-10-25T10:02:27.948Z,60.86
2022-10-25T10:04:54.791Z,60.98
2022-10-25T10:07:34.325Z,60.73
2022-10-25T10:10:02.791Z,60.90
2022-10-25T10:12:53.540Z,60.09
2022-10-25T10:15:28.525Z,60.26
2022-10-25T10:18:19.694Z,60.77
2022-10-25T10:20:55.716Z,59.04
2022-10-25T10:23:22.790Z,58.57
2022-10-25T10:25:49.520Z,58.25
2022-10-25T10:28:16.237Z,58.08
2022-10-25T10:30:52.415Z,57.82
2022-10-25T10:33:19.630Z,57.18
2022-10-25T10:35:46.411Z,56.74
2022-10-25T10:38:15.127Z,57.07
2022-10-25T10:40:42.032Z,56.99
2022-10-25T10:43:24.157Z,56.47
2022-10-25T10:45:52.020Z,56.45
2022-10-25T10:48:21.127Z,56.08
2022-10-25T10:50:49.094Z,55.98
2022-10-25T10:53:29.617Z,55.71
2022-10-25T10:55:58.272Z,55.10
2022-10-25T10:58:53.105Z,55.52
2022-10-25T11:01:32.965Z,54.48
2022-10-25T11:04:01.061Z,54.79
2022-10-25T11:06:31.876Z,54.08
2022-10-25T11:09:20.475Z,54.46
2022-10-25T11:12:05.965Z,54.70
2022-10-25T11:14:33.149Z,53.72
2022-10-25T11:17:11.854Z,53.09
2022-10-25T11:19:57.138Z,53.30
2022-10-25T11:22:23.812Z,52.52
2022-10-25T11:24:53.509Z,51.64
2022-10-25T11:27:23.434Z,52.27
2022-10-25T11:29:54.210Z,51.87
2022-10-25T11:32:39.292Z,51.67
2022-10-25T11:35:29.534Z,51.43
2022-10-25T11:38:16.837Z,51.10
2022-10-25T11:40:54.924Z,50.63
2022-10-25T11:43:21.888Z,50.96
2022-10-25T11:45:56.443Z,49.89
2022-10-25T11:48:26.262Z,49.58
2022-10-25T11:50:53.143Z,49.54
2022-10-25T11:53:39.854Z,49.06
2022-10-25T11:56:18.099Z,49.01
2022-10-25T11:59:20.979Z,48.72
2022-10-25T12:02:02.205Z,46.23
2022-10-25T12:04:33.711Z,45.83
2022-10-25T12:07:02.856Z,46.09
2022-10-25T12:09:35.714Z,47.22
2022-10-25T12:12:09.049Z,47.35
2022-10-25T12:14:38.201Z,47.72
2022-10-25T12:17:07.802Z,47.22
2022-10-25T12:19:45.875Z,46.84
2022-10-25T12:22:24.574Z,46.63
2022-10-25T12:24:58.335Z,45.85
2022-10-25T12:27:27.181Z,45.71
2022-10-25T12:30:00.299Z,44.98
2022-10-25T12:32:42.948Z,45.25
2022-10-25T12:35:36.244Z,44.69
2022-10-25T12:38:06.855Z,44.80
2022-10-25T12:40:41.332Z,45.23
2022-10-25T12:43:32.701Z,44.61
2022-10-25T12:46:05.633Z,44.77
2022-10-25T12:48:44.548Z,44.69
2022-10-25T12:51:30.431Z,44.90
2022-10-25T12:54:23.679Z,45.33
2022-10-25T12:56:57.122Z,45.11
2022-10-25T12:59:43.275Z,44.21
2022-10-25T13:02:09.953Z,44.01
2022-10-25T13:04:55.664Z,44.29
2022-10-25T13:07:23.321Z,42.39
2022-10-25T13:09:50.305Z,42.96
2022-10-25T13:12:26.371Z,42.50
2022-10-25T13:14:55.080Z,42.51
2022-10-25T13:17:21.752Z,42.77
2022-10-25T13:19:56.072Z,42.35
2022-10-25T13:22:34.013Z,41.80
2022-10-25T13:25:13.486Z,41.70
2022-10-25T13:28:00.195Z,41.76
2022-10-25T13:30:32.095Z,40.98
2022-10-25T13:33:33.821Z,40.92
2022-10-25T13:36:02.101Z,41.57
2022-10-25T13:38:30.267Z,40.89
2022-10-25T13:41:07.067Z,40.29
2022-10-25T13:43:34.190Z,40.52
2022-10-25T13:46:01.181Z,40.46
2022-10-25T13:48:29.990Z,40.01
2022-10-25T13:51:09.672Z,40.15
2022-10-25T13:53:38.528Z,40.30
2022-10-25T13:56:12.449Z,40.76
2022-10-25T13:58:42.339Z,40.68
2022-10-25T14:01:12.431Z,41.24
2022-10-25T14:03:58.350Z,41.34
2022-10-25T14:06:29.550Z,41.08
2022-10-25T14:09:02.792Z,41.23
2022-10-25T14:11:32.639Z,41.99
2022-10-25T14:14:07.624Z,42.45
2022-10-25T14:16:36.459Z,42.57
2022-10-25T14:19:06.602Z,42.79
2022-10-25T14:21:33.918Z,43.52
2022-10-25T14:24:04.797Z,43.73
2022-10-25T14:26:31.705Z,44.34
2022-10-25T14:29:14.511Z,44.70
2022-10-25T14:31:41.354Z,45.57
2022-10-25T14:34:18.296Z,45.94
2022-10-25T14:36:48.279Z,45.55
2022-10-25T14:39:19.746Z,45.79
2022-10-25T14:41:54.448Z,46.06
2022-10-25T14:44:25.542Z,46.76
2022-10-25T14:46:53.576Z,46.45
2022-10-25T14:49:20.639Z,46.38
2022-10-25T14:51:48.028Z,47.48
2022-10-25T14:54:14.663Z,43.45
2022-10-25T14:56:44.682Z,43.57
2022-10-25T14:59:27.843Z,44.06
2022-10-25T15:02:13.619Z,42.03
2022-10-25T15:04:42.798Z,40.45
2022-10-25T15:07:30.061Z,40.39
2022-10-25T15:09:58.602Z,40.13
2022-10-25T15:12:26.881Z,41.14
2022-10-25T15:14:55.177Z,40.40
2022-10-25T15:17:22.179Z,40.83
2022-10-25T15:20:08.063Z,40.38
2022-10-25T15:22:38.027Z,40.60
2022-10-25T15:25:29.193Z,41.77
2022-10-25T15:27:56.552Z,42.67
2022-10-25T15:30:52.676Z,43.51
2022-10-25T15:33:21.863Z,44.35
2022-10-25T15:35:50.549Z,44.34
2022-10-25T15:38:17.608Z,44.47
2022-10-25T15:40:45.513Z,44.68
2022-10-25T15:43:12.278Z,44.99
2022-10-25T15:45:39.444Z,45.19
2022-10-25T15:48:07.518Z,45.36
2022-10-25T15:50:34.620Z,46.56
2022-10-25T15:53:01.800Z,45.53
2022-10-25T15:55:33.000Z,45.59
2022-10-25T15:58:07.030Z,45.68
2022-10-25T16:00:37.257Z,45.85
2022-10-25T16:03:04.792Z,46.25
2022-10-25T16:05:33.468Z,46.31
2022-10-25T16:08:00.403Z,46.50
2022-10-25T16:10:28.325Z,47.04
2022-10-25T16:12:59.516Z,47.28
2022-10-25T16:15:27.053Z,47.36
2022-10-25T16:17:53.856Z,47.57
2022-10-25T16:20:22.464Z,47.68
2022-10-25T16:22:49.822Z,47.59
2022-10-25T16:25:17.733Z,47.11
2022-10-25T16:27:46.403Z,46.98
2022-10-25T16:30:14.794Z,46.84
2022-10-25T16:32:41.805Z,46.60
2022-10-25T16:35:09.341Z,46.79
2022-10-25T16:37:36.091Z,46.56
2022-10-25T16:40:03.494Z,46.57
2022-10-25T16:42:34.815Z,46.52
2022-10-25T16:45:02.622Z,46.41
2022-10-25T16:47:30.066Z,46.26
2022-10-25T16:49:56.898Z,46.32
2022-10-25T16:52:23.895Z,46.18
2022-10-25T16:54:50.686Z,46.34
2022-10-25T16:57:17.506Z,46.42
2022-10-25T16:59:44.298Z,46.48
2022-10-25T17:02:16.221Z,46.50
2022-10-25T17:04:43.155Z,46.62
2022-10-25T17:07:09.952Z,46.71
2022-10-25T17:09:36.856Z,46.61
2022-10-25T17:12:03.644Z,46.34
2022-10-25T17:14:30.642Z,46.64
2022-10-25T17:17:02.229Z,46.58
2022-10-25T17:19:30.402Z,46.90
2022-10-25T17:21:57.224Z,47.11
2022-10-25T17:24:24.026Z,47.23
2022-10-25T17:26:51.361Z,47.23
2022-10-25T17:29:18.326Z,47.38
2022-10-25T17:31:45.428Z,47.07
2022-10-25T17:34:12.824Z,46.97
2022-10-25T17:36:41.012Z,46.94
2022-10-25T17:39:08.133Z,47.71
2022-10-25T17:41:34.978Z,47.60
2022-10-25T17:44:01.982Z,47.64
2022-10-25T17:46:29.998Z,47.71
2022-10-25T17:49:01.926Z,47.83
2022-10-25T17:51:29.673Z,48.27
2022-10-25T17:53:56.549Z,48.52
2022-10-25T17:56:24.770Z,48.85
2022-10-25T17:58:52.494Z,48.94
2022-10-25T18:01:20.780Z,48.92
2022-10-25T18:03:47.918Z,49.34
2022-10-25T18:06:15.611Z,49.49
2022-10-25T18:08:42.705Z,50.11
2022-10-25T18:11:10.341Z,50.43
2022-10-25T18:13:38.387Z,50.49
2022-10-25T18:18:33.365Z,49.88
2022-10-25T18:21:04.446Z,49.99
2022-10-25T18:23:31.333Z,49.40
2022-10-25T18:25:58.452Z,49.51
2022-10-25T18:28:25.469Z,49.31
2022-10-25T18:30:52.157Z,49.65
2022-10-25T18:33:23.734Z,49.74
2022-10-25T18:35:56.390Z,49.68
2022-10-25T18:38:23.381Z,49.83
2022-10-25T18:40:50.467Z,49.74
2022-10-25T18:43:17.546Z,49.98
2022-10-25T18:45:44.793Z,49.94
2022-10-25T18:48:12.030Z,49.97
2022-10-25T18:50:41.782Z,50.21
2022-10-25T18:53:09.848Z,50.17
2022-10-25T18:55:36.549Z,50.27
2022-10-25T18:58:03.576Z,50.45
2022-10-25T19:00:31.458Z,50.13
2022-10-25T19:02:58.454Z,50.19
2022-10-25T19:05:29.059Z,50.48
2022-10-25T19:07:56.368Z,50.60
2022-10-25T19:10:23.761Z,50.66
2022-10-25T19:12:51.083Z,50.73
2022-10-25T19:15:18.047Z,50.61
2022-10-25T19:17:44.953Z,50.55
2022-10-25T19:20:11.929Z,50.72
2022-10-25T19:22:38.769Z,50.90
2022-10-25T19:25:05.736Z,50.70
2022-10-25T19:27:32.541Z,50.79
2022-10-25T19:29:59.245Z,50.86
2022-10-25T19:32:26.237Z,50.92
2022-10-25T19:34:53.029Z,51.06
2022-10-25T19:37:19.956Z,51.01
2022-10-25T19:39:46.899Z,51.07
2022-10-25T19:42:14.095Z,51.18
2022-10-25T19:44:40.869Z,51.08
2022-10-25T19:47:07.936Z,51.19
2022-10-25T19:49:34.673Z,51.19
2022-10-25T19:52:01.425Z,51.36
2022-10-25T19:54:28.430Z,51.17
2022-10-25T19:56:55.549Z,51.41
2022-10-25T19:59:22.305Z,51.67
2022-10-25T20:01:49.257Z,51.57
2022-10-25T20:04:16.329Z,51.72
2022-10-25T20:06:43.556Z,52.05
2022-10-25T20:09:10.382Z,52.43
2022-10-25T20:11:37.288Z,52.49
2022-10-25T20:14:04.612Z,53.01
2022-10-25T20:16:31.667Z,53.30
2022-10-25T20:18:59.744Z,53.34
2022-10-25T20:21:30.148Z,53.48
2022-10-25T20:23:58.817Z,53.68
2022-10-25T20:26:29.710Z,54.08
2022-10-25T20:28:57.529Z,54.13
2022-10-25T20:31:25.254Z,53.93
2022-10-25T20:33:52.507Z,54.04
2022-10-25T20:36:19.712Z,54.39
2022-10-25T20:38:46.940Z,54.76
2022-10-25T20:41:19.296Z,55.09
2022-10-25T20:43:50.401Z,55.38
2022-10-25T20:46:17.643Z,55.48
2022-10-25T20:48:45.824Z,55.59
2022-10-25T20:51:15.412Z,55.76
2022-10-25T20:53:44.258Z,56.01
2022-10-25T20:56:11.799Z,56.19
2022-10-25T20:58:38.615Z,56.22
2022-10-25T21:01:05.644Z,56.92
2022-10-25T21:03:32.844Z,57.11
2022-10-25T21:06:00.967Z,57.22
2022-10-25T21:08:27.820Z,57.36
2022-10-25T21:10:55.534Z,57.59
2022-10-25T21:13:23.459Z,57.63
2022-10-25T21:15:50.716Z,58.33
2022-10-25T21:18:17.692Z,58.76
2022-10-25T21:20:45.008Z,58.54
2022-10-25T21:23:12.442Z,58.74
2022-10-25T21:25:39.299Z,58.81
2022-10-25T21:28:06.265Z,59.25
2022-10-25T21:30:33.363Z,59.01
2022-10-25T21:33:00.398Z,59.25
2022-10-25T21:35:27.139Z,59.49
2022-10-25T21:37:54.105Z,59.71
2022-10-25T21:40:21.178Z,59.80
2022-10-25T21:42:48.209Z,59.99
2022-10-25T21:45:15.019Z,60.11
2022-10-25T21:47:41.765Z,60.48
2022-10-25T21:50:09.292Z,60.47
2022-10-25T21:52:36.738Z,60.71
2022-10-25T21:55:03.823Z,60.63
2022-10-25T21:57:30.724Z,60.79
2022-10-25T21:59:57.454Z,60.77
2022-10-25T22:02:26.082Z,60.64
2022-10-25T22:04:52.974Z,60.76
2022-10-25T22:07:19.731Z,60.76
2022-10-25T22:09:46.501Z,60.87
2022-10-25T22:12:13.223Z,60.95
2022-10-25T22:14:40.146Z,61.08
2022-10-25T22:17:07.339Z,61.25
2022-10-25T22:19:34.200Z,61.26
2022-10-25T22:22:01.303Z,61.14
2022-10-25T22:24:28.123Z,61.41
2022-10-25T22:26:54.953Z,61.36
2022-10-25T22:29:21.706Z,61.31
2022-10-25T22:31:48.466Z,61.49
2022-10-25T22:34:15.387Z,61.77
2022-10-25T22:36:42.493Z,61.67
2022-10-25T22:39:09.913Z,61.73
2022-10-25T22:41:36.719Z,61.82
2022-10-25T22:44:03.596Z,61.94
2022-10-25T22:46:32.171Z,62.16
2022-10-25T22:48:59.928Z,62.15
2022-10-25T22:51:28.006Z,61.92
2022-10-25T22:53:55.424Z,61.88
2022-10-25T22:56:23.293Z,62.07
2022-10-25T22:58:54.684Z,62.11
2022-10-25T23:01:28.995Z,62.13
2022-10-25T23:03:56.843Z,61.88
2022-10-25T23:06:24.840Z,61.83
2022-10-25T23:08:58.730Z,61.62
2022-10-25T23:11:27.066Z,61.62
2022-10-25T23:13:53.797Z,61.62
2022-10-25T23:16:21.001Z,61.48
2022-10-25T23:18:47.787Z,61.54
2022-10-25T23:21:17.328Z,61.53
2022-10-25T23:23:44.667Z,61.63
2022-10-25T23:26:22.398Z,61.78
2022-10-25T23:28:49.947Z,61.68
2022-10-25T23:31:17.129Z,61.70
2022-10-25T23:33:44.534Z,61.73
2022-10-25T23:36:15.715Z,61.67
2022-10-25T23:38:46.459Z,61.63
2022-10-25T23:41:13.398Z,61.73
2022-10-25T23:43:40.745Z,61.63
2022-10-25T23:46:08.020Z,61.80
2022-10-25T23:48:35.215Z,61.82
2022-10-25T23:51:05.910Z,61.80
2022-10-25T23:53:32.887Z,62.03
2022-10-25T23:56:00.001Z,61.81
2022-10-25T23:58:27.014Z,61.85
